createdAt,value
2023-03-15T00:03:07.042Z,96644.44
2023-03-15T00:07:09.982Z,96643.28
2023-03-15T00:11:12.628Z,96658.66
2023-03-15T00:15:16.750Z,96658.94
2023-03-15T00:19:19.399Z,96660.34
2023-03-15T00:23:22.247Z,96647.00
2023-03-15T00:27:24.923Z,96655.63
2023-03-15T00:31:29.074Z,96662.59
2023-03-15T00:35:31.779Z,96679.78
2023-03-15T00:39:39.647Z,96695.72
2023-03-15T00:43:42.443Z,96699.53
2023-03-15T00:47:46.648Z,96705.81
2023-03-15T00:51:49.304Z,96708.19
2023-03-15T00:55:52.015Z,96714.34
2023-03-15T00:59:54.806Z,96706.81
2023-03-15T01:03:59.074Z,96699.81
2023-03-15T01:08:03.105Z,96710.69
2023-03-15T01:12:06.107Z,96706.56
2023-03-15T01:16:12.887Z,96704.63
2023-03-15T01:20:16.987Z,96710.31
2023-03-15T01:24:19.666Z,96713.19
2023-03-15T01:28:22.354Z,96721.16
2023-03-15T01:32:25.037Z,96727.88
2023-03-15T01:36:29.117Z,96740.91
2023-03-15T01:40:31.783Z,96736.38
2023-03-15T01:44:55.340Z,96746.00
2023-03-15T01:49:03.602Z,96737.59
2023-03-15T01:53:07.638Z,96730.31
2023-03-15T01:57:14.151Z,96739.50
2023-03-15T02:01:17.363Z,96753.47
2023-03-15T02:05:22.970Z,96773.31
2023-03-15T02:09:33.345Z,96776.84
2023-03-15T02:13:37.025Z,96784.34
2023-03-15T02:17:42.378Z,96800.31
2023-03-15T02:21:55.140Z,96806.16
2023-03-15T02:26:06.874Z,96808.00
2023-03-15T02:30:12.548Z,96821.66
2023-03-15T02:34:15.196Z,96811.50
2023-03-15T02:38:18.293Z,96820.16
2023-03-15T02:42:21.337Z,96837.81
2023-03-15T02:46:25.795Z,96840.31
2023-03-15T02:50:28.508Z,96867.16
2023-03-15T02:54:34.270Z,96873.66
2023-03-15T02:58:36.957Z,96881.72
2023-03-15T03:02:41.277Z,96876.38
2023-03-15T03:06:44.214Z,96892.78
2023-03-15T03:10:46.888Z,96903.25
2023-03-15T03:14:49.650Z,96920.44
2023-03-15T03:18:53.665Z,96918.16
2023-03-15T03:22:56.369Z,96939.13
2023-03-15T03:26:59.105Z,96961.44
2023-03-15T03:31:02.129Z,96978.41
2023-03-15T03:35:07.702Z,96981.75
2023-03-15T03:39:11.059Z,96988.41
2023-03-15T03:43:13.804Z,97001.53
2023-03-15T03:47:16.780Z,97018.00
2023-03-15T03:51:20.791Z,97026.50
2023-03-15T03:55:25.196Z,97028.66
2023-03-15T03:59:27.954Z,97035.59
2023-03-15T04:03:31.135Z,97037.28
2023-03-15T04:07:35.195Z,97049.28
2023-03-15T04:11:37.927Z,97054.91
2023-03-15T04:15:41.269Z,97053.75
2023-03-15T04:19:46.936Z,97061.91
2023-03-15T04:23:51.032Z,97070.53
2023-03-15T04:27:59.519Z,97075.22
2023-03-15T04:32:02.497Z,97079.84
2023-03-15T04:36:06.236Z,97095.34
2023-03-15T04:40:12.777Z,97102.97
2023-03-15T04:44:16.266Z,97118.44
2023-03-15T04:48:18.898Z,97127.75
2023-03-15T04:52:21.612Z,97137.22
2023-03-15T04:56:25.603Z,97132.69
2023-03-15T05:00:28.275Z,97137.00
2023-03-15T05:04:30.955Z,97144.00
2023-03-15T05:08:33.594Z,97162.81
2023-03-15T05:12:37.561Z,97168.16
2023-03-15T05:16:40.646Z,97186.16
2023-03-15T05:20:43.279Z,97177.69
2023-03-15T05:24:46.370Z,97204.16
2023-03-15T05:28:54.971Z,97212.41
2023-03-15T05:32:57.821Z,97225.06
2023-03-15T05:37:00.828Z,97233.00
2023-03-15T05:41:04.030Z,97240.25
2023-03-15T05:45:09.462Z,97238.25
2023-03-15T05:49:13.014Z,97250.19
2023-03-15T05:53:15.836Z,97255.00
2023-03-15T05:57:18.760Z,97260.28
2023-03-15T06:01:22.863Z,97274.09
2023-03-15T06:05:25.532Z,97267.97
2023-03-15T06:09:28.265Z,97278.19
2023-03-15T06:13:31.238Z,97283.34
2023-03-15T06:17:35.235Z,97303.94
2023-03-15T06:21:37.886Z,97300.81
2023-03-15T06:25:40.531Z,97316.28
2023-03-15T06:29:43.216Z,97316.19
2023-03-15T06:33:47.213Z,97321.38
2023-03-15T06:37:50.013Z,97336.22
2023-03-15T06:41:57.332Z,97332.91
2023-03-15T06:46:00.199Z,97335.59
2023-03-15T06:50:04.316Z,97343.88
2023-03-15T06:54:07.060Z,97340.94
2023-03-15T06:58:09.669Z,97360.50
2023-03-15T07:02:15.540Z,97356.13
2023-03-15T07:06:19.573Z,97358.75
2023-03-15T07:10:22.350Z,97363.03
2023-03-15T07:14:25.016Z,97371.53
2023-03-15T07:18:27.635Z,97372.16
2023-03-15T07:22:31.599Z,97366.94
2023-03-15T07:26:34.980Z,97384.44
2023-03-15T07:30:37.702Z,97388.44
2023-03-15T07:34:40.472Z,97382.53
2023-03-15T07:38:44.973Z,97386.38
2023-03-15T07:42:47.595Z,97392.81
2023-03-15T07:46:50.473Z,97399.03
2023-03-15T07:50:53.151Z,97398.28
2023-03-15T07:54:57.131Z,97403.50
2023-03-15T07:58:59.896Z,97415.28
2023-03-15T08:03:02.590Z,97416.00
2023-03-15T08:07:05.454Z,97402.66
2023-03-15T08:11:09.480Z,97410.06
2023-03-15T08:15:12.670Z,97413.84
2023-03-15T08:19:15.271Z,97417.53
2023-03-15T08:23:17.944Z,97414.88
2023-03-15T08:27:22.016Z,97403.06
2023-03-15T08:31:24.729Z,97407.41
2023-03-15T08:35:27.602Z,97408.06
2023-03-15T08:39:30.915Z,97416.75
2023-03-15T08:43:34.928Z,97416.28
2023-03-15T08:47:38.010Z,97410.06
2023-03-15T08:51:41.000Z,97413.75
2023-03-15T08:55:44.938Z,97413.09
2023-03-15T08:59:48.886Z,97422.25
2023-03-15T09:03:52.042Z,97432.63
2023-03-15T09:07:54.736Z,97436.81
2023-03-15T09:11:57.582Z,97423.94
2023-03-15T09:16:03.583Z,97429.63
2023-03-15T09:20:14.907Z,97430.28
2023-03-15T09:24:18.238Z,97439.13
2023-03-15T09:28:20.849Z,97438.13
2023-03-15T09:32:24.964Z,97439.75
2023-03-15T09:36:28.893Z,97445.59
2023-03-15T09:40:34.463Z,97438.59
2023-03-15T09:44:45.840Z,97448.31
2023-03-15T09:48:54.856Z,97465.56
2023-03-15T09:53:01.493Z,97474.91
2023-03-15T09:57:10.875Z,97477.03
2023-03-15T10:01:15.886Z,97471.69
2023-03-15T10:05:27.088Z,97474.13
2023-03-15T10:09:34.006Z,97468.97
2023-03-15T10:13:54.744Z,97470.94
2023-03-15T10:18:18.867Z,97468.00
2023-03-15T10:22:28.957Z,97473.47
2023-03-15T10:26:36.709Z,97479.47
2023-03-15T10:30:47.072Z,97474.78
2023-03-15T10:34:52.331Z,97482.03
2023-03-15T10:38:56.851Z,97472.88
2023-03-15T10:42:59.492Z,97476.81
2023-03-15T10:47:21.373Z,97489.78
2023-03-15T10:51:27.526Z,97465.97
2023-03-15T10:55:34.996Z,97465.53
2023-03-15T10:59:37.712Z,97480.22
2023-03-15T11:03:43.972Z,97460.09
2023-03-15T11:07:57.975Z,97450.59
2023-03-15T11:12:04.506Z,97446.06
2023-03-15T11:16:09.932Z,97444.47
2023-03-15T11:20:26.038Z,97428.09
2023-03-15T11:24:30.574Z,97429.38
2023-03-15T11:28:38.739Z,97427.88
2023-03-15T11:32:43.900Z,97415.31
2023-03-15T11:37:05.336Z,97417.19
2023-03-15T11:41:21.785Z,97428.09
2023-03-15T11:45:34.354Z,97419.22
2023-03-15T11:49:43.729Z,97427.03
2023-03-15T11:53:53.704Z,97410.88
2023-03-15T11:57:57.982Z,97404.25
2023-03-15T12:02:27.741Z,97399.25
2023-03-15T12:06:39.053Z,97401.09
2023-03-15T12:10:47.527Z,97396.03
2023-03-15T12:15:03.480Z,97392.13
2023-03-15T12:19:15.821Z,97385.72
2023-03-15T12:23:31.891Z,97381.09
2023-03-15T12:27:38.554Z,97373.63
2023-03-15T12:31:59.961Z,97369.47
2023-03-15T12:36:10.068Z,97368.47
2023-03-15T12:40:41.376Z,97374.66
2023-03-15T12:44:44.785Z,97370.84
2023-03-15T12:49:08.067Z,97368.16
2023-03-15T12:53:21.701Z,97380.28
2023-03-15T12:57:30.074Z,97382.31
2023-03-15T13:01:33.563Z,97380.88
2023-03-15T13:06:02.763Z,97373.31
2023-03-15T13:10:26.768Z,97376.56
2023-03-15T13:14:43.078Z,97396.56
2023-03-15T13:18:55.152Z,97384.63
2023-03-15T13:23:07.652Z,97383.63
2023-03-15T13:27:30.148Z,97380.28
2023-03-15T13:31:33.388Z,97397.84
2023-03-15T13:35:44.178Z,97383.31
2023-03-15T13:39:58.188Z,97406.88
2023-03-15T13:44:06.601Z,97401.06
2023-03-15T13:48:09.864Z,97403.41
2023-03-15T13:52:15.748Z,97388.16
2023-03-15T13:56:20.699Z,97405.34
2023-03-15T14:00:26.929Z,97403.03
2023-03-15T14:04:31.557Z,97419.56
2023-03-15T14:08:38.279Z,97439.47
2023-03-15T14:12:40.999Z,97454.31
2023-03-15T14:17:03.638Z,97454.03
2023-03-15T14:21:12.095Z,97471.84
2023-03-15T14:25:23.118Z,97448.28
2023-03-15T14:29:29.958Z,97456.13
2023-03-15T14:33:39.562Z,97460.88
2023-03-15T14:37:44.273Z,97451.03
2023-03-15T14:41:47.256Z,97436.56
2023-03-15T14:45:50.540Z,97456.78
2023-03-15T14:49:54.626Z,97447.78
2023-03-15T14:53:59.846Z,97458.50
2023-03-15T14:58:03.285Z,97460.63
2023-03-15T15:02:06.772Z,97468.13
2023-03-15T15:06:13.527Z,97457.31
2023-03-15T15:10:16.123Z,97457.97
2023-03-15T15:14:20.744Z,97454.94
2023-03-15T15:18:23.956Z,97457.53
2023-03-15T15:22:28.713Z,97462.66
2023-03-15T15:26:33.226Z,97470.81
2023-03-15T15:30:35.907Z,97469.47
2023-03-15T15:34:38.648Z,97469.84
2023-03-15T15:38:43.732Z,97472.84
2023-03-15T15:42:46.641Z,97473.16
2023-03-15T15:46:49.566Z,97477.88
2023-03-15T15:50:52.200Z,97480.53
2023-03-15T15:54:56.311Z,97477.38
2023-03-15T15:59:00.486Z,97475.19
2023-03-15T16:03:03.346Z,97486.38
2023-03-15T16:07:07.713Z,97484.88
2023-03-15T16:11:14.017Z,97481.53
2023-03-15T16:15:18.679Z,97489.03
2023-03-15T16:19:21.553Z,97496.75
2023-03-15T16:23:26.386Z,97499.25
2023-03-15T16:27:31.055Z,97508.91
2023-03-15T16:31:35.220Z,97502.91
2023-03-15T16:35:38.502Z,97524.28
2023-03-15T16:39:48.768Z,97520.66
2023-03-15T16:43:53.012Z,97526.59
2023-03-15T16:47:56.472Z,97530.50
2023-03-15T16:51:59.951Z,97541.34
2023-03-15T16:56:02.671Z,97551.81
2023-03-15T17:00:11.948Z,97554.78
2023-03-15T17:04:14.893Z,97558.63
2023-03-15T17:08:21.004Z,97570.63
2023-03-15T17:12:26.128Z,97574.44
2023-03-15T17:16:31.801Z,97586.44
2023-03-15T17:20:34.627Z,97587.78
2023-03-15T17:24:37.754Z,97596.28
2023-03-15T17:28:41.514Z,97591.25
2023-03-15T17:32:46.986Z,97603.47
2023-03-15T17:36:50.073Z,97598.63
2023-03-15T17:40:53.802Z,97609.94
2023-03-15T17:44:57.600Z,97614.25
2023-03-15T17:49:03.020Z,97606.41
2023-03-15T17:53:08.508Z,97617.25
2023-03-15T17:57:13.123Z,97621.00
2023-03-15T18:01:18.119Z,97632.19
2023-03-15T18:05:26.025Z,97642.31
2023-03-15T18:09:28.661Z,97641.63
2023-03-15T18:13:31.345Z,97646.13
2023-03-15T18:17:34.021Z,97656.81
2023-03-15T18:21:38.106Z,97659.81
2023-03-15T18:25:41.043Z,97665.44
2023-03-15T18:29:44.607Z,97664.72
2023-03-15T18:33:47.961Z,97669.97
2023-03-15T18:37:54.228Z,97668.91
2023-03-15T18:41:56.914Z,97668.19
2023-03-15T18:45:59.610Z,97677.31
2023-03-15T18:50:10.049Z,97673.59
2023-03-15T18:54:15.589Z,97676.88
2023-03-15T18:58:18.583Z,97678.75
2023-03-15T19:02:21.380Z,97674.34
2023-03-15T19:06:24.399Z,97673.97
2023-03-15T19:10:28.760Z,97692.63
2023-03-15T19:14:31.485Z,97690.41
2023-03-15T19:18:35.107Z,97694.94
2023-03-15T19:22:38.029Z,97702.78
2023-03-15T19:26:42.193Z,97706.00
2023-03-15T19:30:45.599Z,97710.94
2023-03-15T19:34:48.364Z,97699.16
2023-03-15T19:38:50.996Z,97701.13
2023-03-15T19:42:55.128Z,97710.78
2023-03-15T19:46:57.967Z,97704.69
2023-03-15T19:51:00.778Z,97708.50
2023-03-15T19:55:04.206Z,97709.59
2023-03-15T19:59:08.904Z,97701.78
2023-03-15T20:03:12.646Z,97711.59
2023-03-15T20:07:15.348Z,97721.69
2023-03-15T20:11:24.952Z,97744.88
2023-03-15T20:15:29.555Z,97738.34
2023-03-15T20:19:33.500Z,97734.19
2023-03-15T20:23:36.342Z,97748.63
2023-03-15T20:27:39.533Z,97752.41
2023-03-15T20:31:43.582Z,97751.88
2023-03-15T20:35:46.244Z,97754.94
2023-03-15T20:39:49.520Z,97764.06
2023-03-15T20:43:52.419Z,97763.66
2023-03-15T20:47:56.368Z,97769.56
2023-03-15T20:51:59.610Z,97771.41
2023-03-15T20:56:03.528Z,97778.25
2023-03-15T21:00:12.550Z,97787.78
2023-03-15T21:04:16.595Z,97783.56
2023-03-15T21:08:19.288Z,97787.94
2023-03-15T21:12:22.010Z,97782.47
2023-03-15T21:16:26.215Z,97787.78
2023-03-15T21:20:30.897Z,97791.84
2023-03-15T21:24:40.608Z,97795.34
2023-03-15T21:28:46.814Z,97791.16
2023-03-15T21:32:49.595Z,97787.22
2023-03-15T21:36:53.714Z,97796.16
2023-03-15T21:40:59.319Z,97796.31
2023-03-15T21:45:02.307Z,97797.44
2023-03-15T21:49:05.684Z,97812.53
2023-03-15T21:53:09.700Z,97800.78
2023-03-15T21:57:13.489Z,97809.59
2023-03-15T22:01:16.292Z,97803.41
2023-03-15T22:05:20.493Z,97808.31
2023-03-15T22:09:24.504Z,97815.16
2023-03-15T22:13:27.973Z,97821.72
2023-03-15T22:17:30.696Z,97810.22
2023-03-15T22:21:33.695Z,97828.25
2023-03-15T22:25:38.896Z,97831.31
2023-03-15T22:29:41.779Z,97834.34
2023-03-15T22:33:44.811Z,97831.41
2023-03-15T22:37:49.270Z,97829.56
2023-03-15T22:41:53.275Z,97843.13
2023-03-15T22:45:56.115Z,97845.91
2023-03-15T22:49:59.799Z,97845.72
2023-03-15T22:54:02.553Z,97848.75
2023-03-15T22:58:06.588Z,97844.56
2023-03-15T23:02:09.453Z,97848.16
2023-03-15T23:06:12.123Z,97848.69
2023-03-15T23:10:14.932Z,97843.09
2023-03-15T23:14:18.985Z,97839.38
2023-03-15T23:18:22.019Z,97840.03
2023-03-15T23:22:24.814Z,97848.28
2023-03-15T23:26:27.621Z,97837.66
2023-03-15T23:30:35.103Z,97854.41
2023-03-15T23:34:42.660Z,97853.81
2023-03-15T23:38:45.207Z,97864.31
2023-03-15T23:42:48.215Z,97863.41
2023-03-15T23:46:53.646Z,97868.38
2023-03-15T23:50:57.541Z,97861.63
2023-03-15T23:55:00.266Z,97856.34
2023-03-15T23:59:02.969Z,97862.88
